Indianola, Iowa
Current Conditions -  °F | °C
As of 9:54 PM on Tuesday 25 Nov 2014 (Local Time) from KDSM Reporting Station
Overcast Overcast  
Wind Chill: 21°   Ceiling: 10000
Heat Index: 30°   Visibility: 10mi
Dew Point: 14°   Wind: 10mph
Humidity: 51%   Direction: 160°SSE
Pressure: 30.02"   Gusts: NA
Location:  41.36°N, 93.56°W
Report Text: KDSM 260354Z 16009KT 10SM OVC100 M01/M10 A3002 RMK AO2 SLP176 T10111100
Loading
Personal Weather Stations






























Interactive Weather Map New forecast layout! Learn more

10-Day Weather Forecast

Advertisements
Track Severe Weather on mobile